Time;durP1;ratioP1;P1;durP2;ratioP2;P2;SDS_P1;SDS_P2;PMS_P1;PMS_P2;Temp;Humidity;BMP_temperature;BMP_pressure;BME280_temperature;BME280_humidity;BME280_pressure;Samples;Min_cycle;Max_cycle;Signal;HPM_P1;HPM_P2
2023/07/03 00:42:16;;;;;;;17.42;12.93;;;;;;;;;;4950404;28;20051;-87
2023/07/03 01:02:01;;;;;;;17.73;13.35;;;;;;;;;;5006389;28;20053;-87
2023/07/03 01:05:25;;;;;;;18.55;13.95;;;;;;;;;;4997953;28;20046;-88
2023/07/03 01:08:25;;;;;;;15.65;13.30;;;;;;;;;;5000195;28;20042;-86
2023/07/03 01:11:17;;;;;;;18.25;13.48;;;;;;;;;;5024927;28;20038;-88
2023/07/03 01:14:12;;;;;;;16.80;12.75;;;;;;;;;;5003719;28;20046;-88
2023/07/03 01:16:59;;;;;;;19.83;12.70;;;;;;;;;;5002866;28;20050;-86
2023/07/03 01:20:13;;;;;;;16.13;13.02;;;;;;;;;;5019205;28;20054;-87
2023/07/03 01:23:17;;;;;;;;;;;;;;;;;;;;;
2023/07/03 01:29:55;;;;;;;21.40;13.40;;;;;;;;;;5000091;28;20049;-87
2023/07/03 01:32:53;;;;;;;24.77;13.65;;;;;;;;;;5006241;28;20045;-87
2023/07/03 01:36:06;;;;;;;20.60;13.60;;;;;;;;;;4991029;28;20050;-86
2023/07/03 01:38:53;;;;;;;16.17;13.52;;;;;;;;;;4994220;28;20042;-87
2023/07/03 01:42:27;;;;;;;16.80;13.60;;;;;;;;;;5005974;28;20058;-87
2023/07/03 01:46:25;;;;;;;18.10;14.00;;;;;;;;;;5006474;28;20042;-88
2023/07/03 01:50:07;;;;;;;19.10;13.73;;;;;;;;;;4917006;29;20052;-88
2023/07/03 01:53:15;;;;;;;17.50;14.50;;;;;;;;;;4917443;29;20044;-87
2023/07/03 01:56:39;;;;;;;18.13;13.57;;;;;;;;;;4915408;29;20044;-88
2023/07/03 01:59:29;;;;;;;18.73;13.77;;;;;;;;;;4989427;28;20057;-87
2023/07/03 02:02:47;;;;;;;20.00;14.13;;;;;;;;;;5005864;28;20480;-87
2023/07/03 02:05:41;;;;;;;20.20;14.48;;;;;;;;;;5014065;28;20396;-87
2023/07/03 02:08:36;;;;;;;19.85;13.15;;;;;;;;;;5006002;28;20050;-87
2023/07/03 02:11:31;;;;;;;16.48;13.50;;;;;;;;;;4991893;28;20046;-87
2023/07/03 02:14:20;;;;;;;19.40;13.85;;;;;;;;;;5005169;28;20050;-87
2023/07/03 02:17:07;;;;;;;15.35;12.07;;;;;;;;;;4991710;28;20049;-87
2023/07/03 02:19:52;;;;;;;16.13;12.55;;;;;;;;;;4999341;28;20050;-87
2023/07/03 02:22:43;;;;;;;17.10;12.55;;;;;;;;;;5005813;28;20473;-87
2023/07/03 02:25:29;;;;;;;15.93;13.20;;;;;;;;;;5006062;28;20061;-87
2023/07/03 02:28:15;;;;;;;16.20;12.23;;;;;;;;;;4996024;28;20050;-87
2023/07/03 02:31:01;;;;;;;17.27;12.82;;;;;;;;;;4995647;28;20093;-87
2023/07/03 02:33:49;;;;;;;17.80;13.05;;;;;;;;;;5009275;28;20046;-87
2023/07/03 02:36:46;;;;;;;15.60;13.10;;;;;;;;;;5002909;28;20075;-87
2023/07/03 02:39:37;;;;;;;;;;;;;;;;;;5017356;28;20045;-87
2023/07/03 02:42:32;;;;;;;17.75;12.35;;;;;;;;;;4995562;28;19913;-87
2023/07/03 02:45:36;;;;;;;16.48;12.30;;;;;;;;;;5009195;28;20473;-87
2023/07/03 02:49:12;;;;;;;;;;;;;;;;;;;;;
2023/07/03 02:52:15;;;;;;;17.67;12.85;;;;;;;;;;4965297;28;20492;-87
2023/07/03 02:55:53;;;;;;;14.88;12.27;;;;;;;;;;5017393;28;20053;-87
2023/07/03 03:03:34;;;;;;;15.35;12.35;;;;;;;;;;4967762;28;20044;-86
2023/07/03 03:07:27;;;;;;;14.65;11.63;;;;;;;;;;5015697;28;20049;-87
2023/07/03 03:11:13;;;;;;;15.25;12.82;;;;;;;;;;5013536;28;20045;-87
2023/07/03 03:23:34;;;;;;;15.25;12.13;;;;;;;;;;4967930;28;20049;-87
2023/07/03 03:31:57;;;;;;;15.60;11.48;;;;;;;;;;4971430;28;20506;-87
2023/07/03 04:00:25;;;;;;;;;;;;;;;;;;;;;
2023/07/03 04:04:28;;;;;;;14.73;9.98;;;;;;;;;;4938025;29;20044;-87
2023/07/03 04:13:24;;;;;;;;;;;;;;;;;;;;;
2023/07/03 04:31:20;;;;;;;;;;;;;;;;;;;;;
2023/07/03 04:34:33;;;;;;;17.50;10.27;;;;;;;;;;4947445;29;20039;-87
2023/07/03 04:45:00;;;;;;;19.25;10.98;;;;;;;;;;4987076;28;20042;-86
2023/07/03 04:51:33;;;;;;;13.95;10.70;;;;;;;;;;4994952;28;20412;-87
2023/07/03 04:54:52;;;;;;;18.85;10.90;;;;;;;;;;4973875;28;20046;-87
2023/07/03 04:58:22;;;;;;;15.63;10.18;;;;;;;;;;4986980;28;20043;-87
2023/07/03 05:02:13;;;;;;;;;;;;;;;;;;;;;
2023/07/03 05:05:04;;;;;;;16.73;9.55;;;;;;;;;;4991645;28;20477;-87
2023/07/03 05:07:50;;;;;;;15.60;9.63;;;;;;;;;;4999748;28;20046;-87
2023/07/03 05:10:35;;;;;;;13.93;10.00;;;;;;;;;;4996696;28;20049;-88
2023/07/03 05:13:21;;;;;;;17.38;9.48;;;;;;;;;;5009005;28;20029;-87
2023/07/03 05:16:06;;;;;;;17.50;11.15;;;;;;;;;;5022057;28;20038;-83
2023/07/03 05:18:52;;;;;;;10.77;8.90;;;;;;;;;;5014456;28;20476;-87
2023/07/03 05:21:37;;;;;;;11.65;8.27;;;;;;;;;;5006735;28;20042;-85
2023/07/03 05:24:22;;;;;;;12.02;7.93;;;;;;;;;;4999962;28;20393;-88
2023/07/03 05:27:08;;;;;;;12.23;7.65;;;;;;;;;;5014448;28;20053;-88
2023/07/03 05:29:53;;;;;;;13.13;7.63;;;;;;;;;;4993760;28;20396;-85
2023/07/03 05:32:39;;;;;;;11.32;7.32;;;;;;;;;;5014862;28;20046;-86
2023/07/03 05:35:25;;;;;;;19.98;8.43;;;;;;;;;;4991689;28;20050;-86
2023/07/03 05:38:10;;;;;;;13.27;8.30;;;;;;;;;;4992332;28;20389;-85
2023/07/03 05:40:55;;;;;;;11.65;7.82;;;;;;;;;;4990082;28;20049;-84
2023/07/03 05:43:41;;;;;;;17.60;8.68;;;;;;;;;;4996483;28;20050;-86
2023/07/03 05:46:27;;;;;;;11.95;7.68;;;;;;;;;;5005787;28;20054;-86
2023/07/03 05:49:12;;;;;;;10.25;6.93;;;;;;;;;;4999150;28;20038;-88
2023/07/03 05:51:58;;;;;;;9.88;6.57;;;;;;;;;;4991518;28;20433;-86
2023/07/03 05:54:46;;;;;;;14.77;6.80;;;;;;;;;;5003331;28;20030;-88
2023/07/03 05:57:32;;;;;;;11.38;6.32;;;;;;;;;;5000553;28;20050;-86
2023/07/03 06:00:18;;;;;;;12.90;6.97;;;;;;;;;;5010597;28;20045;-87
2023/07/03 06:03:04;;;;;;;16.25;6.85;;;;;;;;;;5014166;28;20034;-88
2023/07/03 06:05:50;;;;;;;12.23;7.10;;;;;;;;;;5009880;28;20038;-87
2023/07/03 06:08:37;;;;;;;13.85;6.95;;;;;;;;;;5020349;28;20492;-86
2023/07/03 06:11:23;;;;;;;8.18;6.28;;;;;;;;;;5029355;28;20042;-85
2023/07/03 06:14:31;;;;;;;13.77;7.20;;;;;;;;;;5003974;28;20079;-84
2023/07/03 06:17:20;;;;;;;8.98;6.57;;;;;;;;;;5003636;28;20041;-87
2023/07/03 06:20:07;;;;;;;10.00;6.65;;;;;;;;;;5011582;28;20057;-88
2023/07/03 06:22:52;;;;;;;10.50;6.90;;;;;;;;;;5003827;28;20037;-87
2023/07/03 06:25:40;;;;;;;13.82;6.97;;;;;;;;;;5013791;28;20037;-87
2023/07/03 06:28:25;;;;;;;8.93;6.28;;;;;;;;;;5014536;28;20041;-87
2023/07/03 06:31:11;;;;;;;11.93;6.55;;;;;;;;;;5013793;28;20050;-86
2023/07/03 06:33:57;;;;;;;11.05;7.07;;;;;;;;;;5014512;28;20042;-86
2023/07/03 06:36:42;;;;;;;10.73;6.45;;;;;;;;;;5022087;28;20045;-88
2023/07/03 06:39:28;;;;;;;16.75;7.00;;;;;;;;;;5013815;28;20041;-86
2023/07/03 06:42:13;;;;;;;13.73;6.47;;;;;;;;;;4999297;28;20038;-85
2023/07/03 06:45:02;;;;;;;8.05;5.75;;;;;;;;;;5006456;28;20045;-87
2023/07/03 06:47:52;;;;;;;10.85;6.57;;;;;;;;;;5006462;28;20061;-86
2023/07/03 06:50:38;;;;;;;12.05;5.38;;;;;;;;;;4992404;28;20388;-84
2023/07/03 06:53:23;;;;;;;10.80;4.75;;;;;;;;;;5005241;28;20042;-84
2023/07/03 06:56:09;;;;;;;10.80;5.35;;;;;;;;;;5005476;28;20480;-83
2023/07/03 06:58:55;;;;;;;14.68;5.85;;;;;;;;;;5013750;28;20038;-85
2023/07/03 07:01:41;;;;;;;9.88;5.32;;;;;;;;;;5013872;28;20034;-84
2023/07/03 07:04:27;;;;;;;8.32;5.18;;;;;;;;;;5013784;28;20476;-85
2023/07/03 07:07:13;;;;;;;7.30;4.80;;;;;;;;;;5013355;28;20046;-85
2023/07/03 07:09:58;;;;;;;7.95;4.50;;;;;;;;;;4999366;28;20050;-84
2023/07/03 07:12:44;;;;;;;6.90;5.15;;;;;;;;;;5013597;28;20042;-84
2023/07/03 07:15:29;;;;;;;5.93;4.53;;;;;;;;;;5007144;28;20046;-84
2023/07/03 07:18:14;;;;;;;6.40;4.70;;;;;;;;;;5006183;28;20038;-86
2023/07/03 07:20:59;;;;;;;6.97;4.80;;;;;;;;;;5006083;28;20038;-86
2023/07/03 07:24:00;;;;;;;6.47;4.40;;;;;;;;;;5014218;28;20435;-87
2023/07/03 07:26:49;;;;;;;14.45;5.15;;;;;;;;;;5011360;28;20058;-87
2023/07/03 07:29:38;;;;;;;8.38;5.25;;;;;;;;;;5005167;28;20046;-87
2023/07/03 07:32:25;;;;;;;9.02;5.35;;;;;;;;;;4998242;28;20038;-86
2023/07/03 07:35:11;;;;;;;8.00;4.90;;;;;;;;;;5005036;28;20416;-85
2023/07/03 07:37:57;;;;;;;11.82;5.07;;;;;;;;;;4998304;28;20050;-86
2023/07/03 07:40:43;;;;;;;15.80;5.22;;;;;;;;;;5012509;28;20046;-86
2023/07/03 07:43:29;;;;;;;11.43;4.95;;;;;;;;;;5024739;28;20038;-86
2023/07/03 07:46:15;;;;;;;7.70;4.80;;;;;;;;;;4997902;28;20030;-86
2023/07/03 07:49:01;;;;;;;5.93;4.85;;;;;;;;;;5004358;28;20488;-84
2023/07/03 07:51:45;;;;;;;6.10;4.60;;;;;;;;;;5009579;28;20049;-86
2023/07/03 07:54:30;;;;;;;11.48;4.75;;;;;;;;;;4992985;28;20042;-86
2023/07/03 07:57:16;;;;;;;5.65;4.60;;;;;;;;;;4985873;28;20050;-84
2023/07/03 08:00:03;;;;;;;11.20;3.85;;;;;;;;;;4979328;28;20054;-86
2023/07/03 08:02:57;;;;;;;5.78;4.00;;;;;;;;;;5006960;28;20050;-85
2023/07/03 08:05:43;;;;;;;8.65;4.00;;;;;;;;;;4992532;28;20046;-84
2023/07/03 08:08:30;;;;;;;11.60;3.70;;;;;;;;;;5006764;28;20499;-85
2023/07/03 08:11:16;;;;;;;11.63;4.10;;;;;;;;;;5007436;28;20038;-81
2023/07/03 08:14:01;;;;;;;4.70;3.72;;;;;;;;;;5007605;28;20500;-85
2023/07/03 08:16:47;;;;;;;9.23;3.70;;;;;;;;;;4993245;28;20038;-84
2023/07/03 08:19:33;;;;;;;7.32;3.15;;;;;;;;;;5011494;28;20037;-83
2023/07/03 08:22:18;;;;;;;11.32;3.40;;;;;;;;;;5009639;28;21186;-86
2023/07/03 08:25:07;;;;;;;5.10;3.33;;;;;;;;;;4979419;28;20053;-83
2023/07/03 08:27:53;;;;;;;4.32;3.47;;;;;;;;;;4993824;28;20045;-82
2023/07/03 08:30:44;;;;;;;6.15;3.47;;;;;;;;;;5006769;28;20041;-85
2023/07/03 08:33:36;;;;;;;6.50;3.40;;;;;;;;;;4991444;28;20046;-86
2023/07/03 08:36:26;;;;;;;5.53;3.10;;;;;;;;;;4996816;28;20053;-87
2023/07/03 08:39:21;;;;;;;7.30;3.20;;;;;;;;;;5008275;28;20038;-83
2023/07/03 08:42:14;;;;;;;6.97;2.95;;;;;;;;;;4999169;28;20046;-81
2023/07/03 08:45:01;;;;;;;17.37;3.10;;;;;;;;;;5007796;28;20062;-82
2023/07/03 08:47:49;;;;;;;4.80;3.00;;;;;;;;;;4986155;28;20279;-82
2023/07/03 08:50:38;;;;;;;3.88;2.88;;;;;;;;;;5001028;28;20058;-84
2023/07/03 08:53:36;;;;;;;5.35;3.05;;;;;;;;;;4993901;28;20049;-83
2023/07/03 08:56:28;;;;;;;4.40;3.15;;;;;;;;;;5014526;28;20046;-85
2023/07/03 08:59:15;;;;;;;4.32;3.17;;;;;;;;;;5016804;28;20480;-88
2023/07/03 09:02:08;;;;;;;7.75;3.35;;;;;;;;;;5000784;28;20045;-85
2023/07/03 09:05:45;;;;;;;3.93;3.17;;;;;;;;;;4994696;28;20050;-86
2023/07/03 09:08:48;;;;;;;8.13;3.35;;;;;;;;;;4970352;28;20045;-84
2023/07/03 09:11:38;;;;;;;6.75;3.75;;;;;;;;;;4994134;28;20058;-87
2023/07/03 09:14:36;;;;;;;6.43;3.03;;;;;;;;;;4992799;28;20149;-86
2023/07/03 09:17:25;;;;;;;6.47;3.58;;;;;;;;;;4976821;28;20041;-86
2023/07/03 09:20:14;;;;;;;4.97;3.40;;;;;;;;;;4990736;28;20042;-88
2023/07/03 09:23:19;;;;;;;5.13;3.80;;;;;;;;;;4983025;28;20054;-88
2023/07/03 09:26:17;;;;;;;7.72;3.65;;;;;;;;;;5010903;28;20054;-88
2023/07/03 09:29:05;;;;;;;4.78;3.83;;;;;;;;;;5004430;28;20045;-87
2023/07/03 09:31:53;;;;;;;6.47;3.20;;;;;;;;;;4990008;28;20042;-85
2023/07/03 09:35:13;;;;;;;4.63;3.40;;;;;;;;;;4990700;28;20054;-87
2023/07/03 09:38:01;;;;;;;11.30;3.40;;;;;;;;;;4989776;28;20440;-86
2023/07/03 09:40:54;;;;;;;3.25;2.88;;;;;;;;;;5013387;28;20480;-83
2023/07/03 09:43:44;;;;;;;3.15;2.58;;;;;;;;;;5004003;28;20038;-86
2023/07/03 09:46:29;;;;;;;4.93;2.60;;;;;;;;;;5004674;28;20054;-86
2023/07/03 09:49:24;;;;;;;7.13;2.65;;;;;;;;;;4992516;28;20050;-87
2023/07/03 09:52:11;;;;;;;3.03;2.50;;;;;;;;;;4992001;28;20049;-86
2023/07/03 09:55:02;;;;;;;6.60;2.38;;;;;;;;;;5017567;28;20042;-84
2023/07/03 09:57:48;;;;;;;3.95;2.08;;;;;;;;;;5010848;28;20091;-85
2023/07/03 10:00:50;;;;;;;2.85;2.10;;;;;;;;;;4991536;28;20045;-86
2023/07/03 10:03:35;;;;;;;5.75;2.30;;;;;;;;;;4991722;28;20041;-88
2023/07/03 10:06:23;;;;;;;5.00;1.95;;;;;;;;;;4997058;28;20042;-84
2023/07/03 10:09:25;;;;;;;10.95;2.60;;;;;;;;;;5000399;28;20034;-83
2023/07/03 10:12:26;;;;;;;4.03;2.30;;;;;;;;;;5007739;28;20396;-84
2023/07/03 10:15:19;;;;;;;5.95;2.13;;;;;;;;;;5015784;28;20050;-85
2023/07/03 10:18:23;;;;;;;6.43;2.38;;;;;;;;;;5008879;28;20045;-84
2023/07/03 10:21:14;;;;;;;5.70;2.20;;;;;;;;;;5008301;28;20045;-87
2023/07/03 10:24:01;;;;;;;3.97;2.42;;;;;;;;;;4999410;28;20045;-84
2023/07/03 10:26:52;;;;;;;2.55;2.00;;;;;;;;;;4984222;28;20057;-84
2023/07/03 10:29:46;;;;;;;5.00;2.28;;;;;;;;;;5005324;28;20467;-86
2023/07/03 10:32:35;;;;;;;3.95;2.10;;;;;;;;;;4983121;28;20038;-87
2023/07/03 10:35:42;;;;;;;6.15;2.10;;;;;;;;;;4983265;28;20046;-87
2023/07/03 10:39:00;;;;;;;2.92;2.05;;;;;;;;;;4963173;28;20030;-86
2023/07/03 10:55:26;;;;;;;7.60;2.15;;;;;;;;;;4903874;29;20036;-87
2023/07/03 10:59:21;;;;;;;2.72;2.08;;;;;;;;;;4917775;29;20814;-87
2023/07/03 11:10:47;;;;;;;3.80;1.70;;;;;;;;;;4932159;29;20047;-85
2023/07/03 11:14:19;;;;;;;2.80;1.90;;;;;;;;;;4923699;29;20040;-87
2023/07/03 11:21:53;;;;;;;2.08;1.60;;;;;;;;;;4991169;28;20042;-86
2023/07/03 11:24:50;;;;;;;3.45;1.73;;;;;;;;;;4960760;28;20489;-86
2023/07/03 11:27:49;;;;;;;3.40;2.00;;;;;;;;;;4977397;28;20047;-88
2023/07/03 11:30:35;;;;;;;3.38;1.55;;;;;;;;;;4991105;28;20046;-85
2023/07/03 11:33:46;;;;;;;4.93;1.83;;;;;;;;;;4959147;28;20429;-87
2023/07/03 11:37:29;;;;;;;4.72;1.70;;;;;;;;;;4975329;28;20050;-87
2023/07/03 11:40:59;;;;;;;3.25;1.90;;;;;;;;;;5024068;28;20038;-87
2023/07/03 11:44:19;;;;;;;3.22;1.35;;;;;;;;;;4998318;28;20045;-87
2023/07/03 11:47:18;;;;;;;2.70;1.80;;;;;;;;;;5002450;28;20038;-86
2023/07/03 11:50:31;;;;;;;6.45;1.75;;;;;;;;;;5022563;28;20049;-87
2023/07/03 11:53:34;;;;;;;4.75;1.48;;;;;;;;;;4993586;28;20424;-87
2023/07/03 11:56:32;;;;;;;6.40;2.38;;;;;;;;;;5030145;28;20050;-87
2023/07/03 12:04:12;;;;;;;3.63;1.85;;;;;;;;;;5020999;28;20042;-89
2023/07/03 12:07:03;;;;;;;2.38;1.60;;;;;;;;;;4987958;28;20042;-89
2023/07/03 12:09:50;;;;;;;2.90;1.70;;;;;;;;;;4993125;28;20041;-87
2023/07/03 12:16:54;;;;;;;4.75;1.80;;;;;;;;;;5002327;28;20041;-86
2023/07/03 12:24:28;;;;;;;3.05;1.58;;;;;;;;;;5005230;28;20034;-86
2023/07/03 12:27:24;;;;;;;2.85;1.60;;;;;;;;;;4986784;28;20085;-86
2023/07/03 12:30:32;;;;;;;3.67;1.63;;;;;;;;;;5017540;28;20049;-87
2023/07/03 12:37:05;;;;;;;3.08;1.60;;;;;;;;;;4970811;28;20047;-79
2023/07/03 12:39:51;;;;;;;4.45;2.60;;;;;;;;;;4975437;28;20488;-81
2023/07/03 12:42:37;;;;;;;9.70;2.35;;;;;;;;;;4975970;28;20054;-79
2023/07/03 12:45:26;;;;;;;3.17;1.90;;;;;;;;;;4975444;28;20051;-79
2023/07/03 12:48:22;;;;;;;3.08;1.95;;;;;;;;;;4976698;28;20046;-79
2023/07/03 12:51:08;;;;;;;4.93;2.92;;;;;;;;;;4977108;28;20051;-79
2023/07/03 12:53:54;;;;;;;4.93;2.00;;;;;;;;;;4975573;28;20042;-80
2023/07/03 12:56:43;;;;;;;5.20;2.42;;;;;;;;;;4981645;28;20043;-79
2023/07/03 12:59:29;;;;;;;2.95;1.92;;;;;;;;;;4980870;28;20039;-79
2023/07/03 13:02:31;;;;;;;7.00;2.00;;;;;;;;;;4979667;28;20039;-80
2023/07/03 13:05:22;;;;;;;2.38;2.00;;;;;;;;;;4973938;28;20404;-79
2023/07/03 13:08:13;;;;;;;3.15;2.05;;;;;;;;;;4974479;28;20404;-79
2023/07/03 13:11:03;;;;;;;1.95;1.80;;;;;;;;;;4966579;28;20449;-78
2023/07/03 13:14:07;;;;;;;2.63;1.90;;;;;;;;;;4975396;28;20050;-76
2023/07/03 13:17:03;;;;;;;10.40;2.25;;;;;;;;;;4981733;28;20047;-78
2023/07/03 13:19:49;;;;;;;4.55;2.40;;;;;;;;;;4975250;28;20065;-77
2023/07/03 13:22:35;;;;;;;2.95;2.03;;;;;;;;;;4975059;28;20397;-77
2023/07/03 13:25:33;;;;;;;9.48;3.00;;;;;;;;;;4974749;28;20047;-78
2023/07/03 13:28:24;;;;;;;2.67;1.90;;;;;;;;;;4981576;28;20050;-78
2023/07/03 13:31:19;;;;;;;4.45;2.13;;;;;;;;;;4974896;28;20051;-79
2023/07/03 13:34:16;;;;;;;6.25;2.30;;;;;;;;;;4966894;28;20392;-82
2023/07/03 13:37:04;;;;;;;2.85;2.10;;;;;;;;;;5000173;28;20039;-81
2023/07/03 13:39:50;;;;;;;2.47;2.10;;;;;;;;;;5008293;28;20042;-80
2023/07/03 13:42:36;;;;;;;2.95;2.20;;;;;;;;;;5015104;28;20375;-81
2023/07/03 13:45:23;;;;;;;7.15;2.10;;;;;;;;;;5015245;28;20471;-81
2023/07/03 13:48:08;;;;;;;5.60;2.05;;;;;;;;;;5014754;28;20054;-81
2023/07/03 13:50:54;;;;;;;3.30;2.13;;;;;;;;;;5019040;28;20045;-81
2023/07/03 13:53:39;;;;;;;9.10;2.33;;;;;;;;;;5014298;28;20050;-81
2023/07/03 13:56:27;;;;;;;13.32;4.80;;;;;;;;;;5021890;28;20045;-83
2023/07/03 13:59:13;;;;;;;6.85;2.10;;;;;;;;;;5014022;28;20050;-81
2023/07/03 14:01:58;;;;;;;3.22;1.88;;;;;;;;;;5013040;28;20045;-82
2023/07/03 14:04:43;;;;;;;2.63;1.90;;;;;;;;;;5014175;28;20394;-79
2023/07/03 14:07:28;;;;;;;6.78;2.20;;;;;;;;;;5013791;28;20041;-79
2023/07/03 14:10:15;;;;;;;6.82;2.13;;;;;;;;;;5014609;28;20037;-80
2023/07/03 14:13:01;;;;;;;4.25;2.10;;;;;;;;;;5013965;28;20042;-78
2023/07/03 14:15:47;;;;;;;5.50;2.50;;;;;;;;;;5020114;28;20054;-79
2023/07/03 14:18:32;;;;;;;11.85;2.80;;;;;;;;;;5019432;28;20038;-79
2023/07/03 14:21:20;;;;;;;2.97;2.05;;;;;;;;;;5020218;28;20054;-78
2023/07/03 14:24:05;;;;;;;3.75;2.17;;;;;;;;;;5017362;28;20041;-79
2023/07/03 14:26:50;;;;;;;4.65;2.45;;;;;;;;;;5002678;28;20046;-80
2023/07/03 14:29:35;;;;;;;1.70;1.60;;;;;;;;;;5023142;28;20046;-79
2023/07/03 14:32:21;;;;;;;3.13;2.00;;;;;;;;;;5022902;28;20041;-79
2023/07/03 14:35:09;;;;;;;4.57;1.90;;;;;;;;;;5016744;28;20395;-79
2023/07/03 14:37:54;;;;;;;2.35;1.90;;;;;;;;;;5017338;28;20046;-79
2023/07/03 14:40:39;;;;;;;3.00;2.00;;;;;;;;;;5017006;28;20046;-78
2023/07/03 14:43:27;;;;;;;3.42;2.00;;;;;;;;;;5017166;28;20046;-78
2023/07/03 14:46:12;;;;;;;4.05;2.00;;;;;;;;;;5023226;28;20042;-78
2023/07/03 14:48:58;;;;;;;3.38;1.73;;;;;;;;;;5017185;28;20054;-79
2023/07/03 14:51:44;;;;;;;2.38;1.90;;;;;;;;;;5016719;28;20495;-78
2023/07/03 14:54:29;;;;;;;9.90;3.30;;;;;;;;;;5016721;28;20475;-78
2023/07/03 14:57:15;;;;;;;27.23;5.65;;;;;;;;;;5023258;28;20050;-79
2023/07/03 15:00:00;;;;;;;3.25;2.00;;;;;;;;;;5016413;28;20045;-78
2023/07/03 15:02:48;;;;;;;3.95;1.80;;;;;;;;;;5023336;28;20450;-78
2023/07/03 15:05:33;;;;;;;2.38;2.00;;;;;;;;;;5023593;28;20360;-78
2023/07/03 15:08:18;;;;;;;4.88;1.80;;;;;;;;;;5023240;28;20491;-78
2023/07/03 15:11:04;;;;;;;5.13;2.03;;;;;;;;;;5022780;28;20038;-79
2023/07/03 15:13:50;;;;;;;2.20;1.75;;;;;;;;;;5023199;28;20047;-79
2023/07/03 15:16:35;;;;;;;3.35;2.00;;;;;;;;;;5015738;28;20042;-79
2023/07/03 15:19:21;;;;;;;3.88;2.10;;;;;;;;;;5014543;28;20045;-78
2023/07/03 15:22:08;;;;;;;4.22;2.30;;;;;;;;;;5020632;28;20050;-78
2023/07/03 15:24:53;;;;;;;6.32;2.20;;;;;;;;;;5020909;28;20391;-82
2023/07/03 15:27:38;;;;;;;5.65;2.25;;;;;;;;;;5012834;28;20054;-80
2023/07/03 15:30:24;;;;;;;6.55;2.03;;;;;;;;;;5020629;28;20046;-78
2023/07/03 15:33:11;;;;;;;2.38;2.17;;;;;;;;;;5020466;28;20479;-79
2023/07/03 15:35:59;;;;;;;4.05;2.00;;;;;;;;;;5013199;28;20057;-79
2023/07/03 15:38:45;;;;;;;4.43;3.60;;;;;;;;;;5013026;28;20498;-79
2023/07/03 15:41:30;;;;;;;4.35;2.10;;;;;;;;;;5012825;28;20062;-78
2023/07/03 15:44:17;;;;;;;4.55;2.78;;;;;;;;;;5020277;28;20046;-80
2023/07/03 15:47:07;;;;;;;3.38;2.00;;;;;;;;;;5013944;28;20042;-80
2023/07/03 15:49:58;;;;;;;3.78;2.00;;;;;;;;;;5020693;28;20392;-84
2023/07/03 15:52:44;;;;;;;4.13;1.88;;;;;;;;;;5013837;28;20399;-80
2023/07/03 15:55:29;;;;;;;4.57;2.00;;;;;;;;;;5016183;28;20049;-79
2023/07/03 15:59:14;;;;;;;2.78;2.08;;;;;;;;;;5024586;28;20046;-79
2023/07/03 16:01:59;;;;;;;3.30;2.07;;;;;;;;;;5022662;28;20399;-80
2023/07/03 16:04:45;;;;;;;2.38;1.95;;;;;;;;;;5022214;28;20272;-79
2023/07/03 16:07:30;;;;;;;4.32;2.47;;;;;;;;;;5014002;28;20075;-80
2023/07/03 16:10:16;;;;;;;4.15;2.08;;;;;;;;;;5005831;28;20042;-81
2023/07/03 16:13:01;;;;;;;3.70;3.22;;;;;;;;;;5015214;28;20042;-80
2023/07/03 16:15:47;;;;;;;6.78;4.25;;;;;;;;;;5000761;28;20054;-79
2023/07/03 16:18:33;;;;;;;3.97;2.13;;;;;;;;;;5015141;28;20038;-80
2023/07/03 16:21:24;;;;;;;3.40;2.22;;;;;;;;;;4993302;28;20041;-79
2023/07/03 16:24:09;;;;;;;5.13;2.25;;;;;;;;;;5021548;28;20037;-80
2023/07/03 16:26:54;;;;;;;4.50;2.50;;;;;;;;;;5015221;28;20049;-81
2023/07/03 16:29:42;;;;;;;4.78;2.47;;;;;;;;;;5014263;28;20419;-80
2023/07/03 16:32:29;;;;;;;4.55;2.55;;;;;;;;;;5021522;28;20050;-79
2023/07/03 16:35:15;;;;;;;5.63;2.45;;;;;;;;;;5018540;28;20046;-79
2023/07/03 16:38:02;;;;;;;3.05;2.42;;;;;;;;;;5021856;28;20045;-81
2023/07/03 16:41:10;;;;;;;6.03;2.88;;;;;;;;;;5021069;28;20037;-82
2023/07/03 16:43:56;;;;;;;3.10;2.10;;;;;;;;;;5014731;28;20491;-81
2023/07/03 16:46:45;;;;;;;3.58;2.30;;;;;;;;;;5014177;28;20046;-79
2023/07/03 16:49:30;;;;;;;4.95;2.33;;;;;;;;;;5014020;28;20038;-82
2023/07/03 16:52:17;;;;;;;2.50;2.30;;;;;;;;;;5021489;28;20050;-81
2023/07/03 16:55:02;;;;;;;3.70;2.13;;;;;;;;;;5000103;28;20046;-80
2023/07/03 16:57:48;;;;;;;7.45;2.30;;;;;;;;;;5021123;28;20041;-80
2023/07/03 17:00:41;;;;;;;3.55;2.45;;;;;;;;;;5006342;28;20399;-78
2023/07/03 17:03:26;;;;;;;3.63;2.42;;;;;;;;;;5014549;28;20395;-79
2023/07/03 17:06:19;;;;;;;3.38;2.53;;;;;;;;;;5020805;28;20050;-79
2023/07/03 17:09:06;;;;;;;3.40;2.17;;;;;;;;;;5021116;28;20411;-79
2023/07/03 17:11:51;;;;;;;4.35;2.63;;;;;;;;;;5014427;28;20113;-79
2023/07/03 17:14:37;;;;;;;7.07;2.60;;;;;;;;;;5020405;28;20391;-79
2023/07/03 17:17:23;;;;;;;5.03;2.40;;;;;;;;;;5013946;28;20050;-79
2023/07/03 17:20:09;;;;;;;5.30;2.80;;;;;;;;;;5013962;28;20046;-79
2023/07/03 17:22:54;;;;;;;4.25;2.67;;;;;;;;;;5019750;28;20050;-78
2023/07/03 17:25:42;;;;;;;4.93;2.38;;;;;;;;;;5014206;28;20042;-78
2023/07/03 17:28:28;;;;;;;4.38;2.65;;;;;;;;;;5019839;28;20053;-79
2023/07/03 17:31:14;;;;;;;5.70;3.75;;;;;;;;;;5014103;28;20061;-78
2023/07/03 17:33:59;;;;;;;4.55;2.92;;;;;;;;;;5020614;28;20050;-80
2023/07/03 17:36:48;;;;;;;5.90;3.08;;;;;;;;;;5013789;28;20455;-79
2023/07/03 17:39:35;;;;;;;5.25;2.92;;;;;;;;;;5013187;28;20046;-78
2023/07/03 17:42:20;;;;;;;3.85;2.85;;;;;;;;;;5013766;28;20049;-79
2023/07/03 17:45:07;;;;;;;6.25;3.35;;;;;;;;;;5013923;28;20045;-79
2023/07/03 17:47:53;;;;;;;4.97;3.05;;;;;;;;;;5013225;28;20045;-80
2023/07/03 17:50:39;;;;;;;11.15;5.50;;;;;;;;;;5018529;28;20057;-80
2023/07/03 17:53:25;;;;;;;21.55;15.52;;;;;;;;;;5012310;28;20053;-80
2023/07/03 17:56:11;;;;;;;11.93;6.93;;;;;;;;;;5004749;28;20050;-80
2023/07/03 17:58:58;;;;;;;8.68;4.40;;;;;;;;;;5024161;28;20050;-79
2023/07/03 18:01:43;;;;;;;7.28;4.03;;;;;;;;;;5012530;28;20042;-78
2023/07/03 18:04:29;;;;;;;8.93;4.78;;;;;;;;;;5020183;28;20038;-76
2023/07/03 18:07:15;;;;;;;8.93;4.80;;;;;;;;;;5013757;28;20054;-78
2023/07/03 18:10:01;;;;;;;9.40;4.60;;;;;;;;;;5013666;28;20054;-76
2023/07/03 18:12:45;;;;;;;8.82;4.70;;;;;;;;;;5020119;28;20406;-79
2023/07/03 18:15:31;;;;;;;10.23;4.75;;;;;;;;;;5014760;28;20037;-78
2023/07/03 18:18:19;;;;;;;9.23;4.68;;;;;;;;;;5020671;28;20398;-78
2023/07/03 18:21:04;;;;;;;7.30;4.50;;;;;;;;;;5014453;28;20049;-78
2023/07/03 18:23:50;;;;;;;8.73;4.68;;;;;;;;;;5013512;28;20042;-78
2023/07/03 18:26:35;;;;;;;8.07;3.90;;;;;;;;;;4998531;28;20058;-78
2023/07/03 18:29:22;;;;;;;7.63;3.92;;;;;;;;;;5013474;28;20038;-78
2023/07/03 18:32:10;;;;;;;10.80;4.30;;;;;;;;;;5019862;28;20042;-77
2023/07/03 18:34:55;;;;;;;7.43;4.30;;;;;;;;;;5013142;28;20352;-78
2023/07/03 18:37:41;;;;;;;7.57;3.75;;;;;;;;;;5013524;28;20042;-79
2023/07/03 18:40:26;;;;;;;7.47;3.70;;;;;;;;;;5013502;28;20058;-77
2023/07/03 18:43:12;;;;;;;6.45;3.97;;;;;;;;;;5019942;28;20050;-77
2023/07/03 18:45:58;;;;;;;7.60;3.80;;;;;;;;;;5013225;28;20042;-78
2023/07/03 18:48:43;;;;;;;6.00;3.67;;;;;;;;;;5013194;28;20050;-78
2023/07/03 18:51:29;;;;;;;6.57;3.50;;;;;;;;;;5013038;28;20045;-78
2023/07/03 18:54:15;;;;;;;5.38;3.22;;;;;;;;;;5013075;28;20057;-78
2023/07/03 18:57:00;;;;;;;8.18;3.50;;;;;;;;;;5018375;28;20053;-78
2023/07/03 18:59:46;;;;;;;5.53;3.70;;;;;;;;;;5012592;28;20407;-78
2023/07/03 19:02:31;;;;;;;6.45;3.30;;;;;;;;;;5019424;28;20459;-79
2023/07/03 19:05:17;;;;;;;6.60;3.78;;;;;;;;;;5013364;28;20042;-82
2023/07/03 19:08:03;;;;;;;7.13;3.72;;;;;;;;;;5014376;28;20399;-86
2023/07/03 19:10:49;;;;;;;11.82;5.95;;;;;;;;;;5022635;28;20491;-83
2023/07/03 19:13:36;;;;;;;12.98;7.28;;;;;;;;;;5016626;28;20050;-82
2023/07/03 19:16:21;;;;;;;11.18;5.78;;;;;;;;;;5008371;28;20046;-82
2023/07/03 19:19:06;;;;;;;9.25;5.28;;;;;;;;;;5001644;28;20042;-81
2023/07/03 19:21:52;;;;;;;8.70;5.72;;;;;;;;;;5022828;28;20042;-81
2023/07/03 19:24:38;;;;;;;8.40;4.78;;;;;;;;;;5023355;28;20050;-82
2023/07/03 19:27:24;;;;;;;6.65;4.03;;;;;;;;;;5007884;28;20053;-81
2023/07/03 19:30:09;;;;;;;9.05;4.00;;;;;;;;;;5016186;28;20045;-82
2023/07/03 19:32:55;;;;;;;7.28;3.80;;;;;;;;;;5016023;28;20046;-82
2023/07/03 19:35:40;;;;;;;7.00;3.75;;;;;;;;;;5015312;28;20495;-83
2023/07/03 19:38:26;;;;;;;9.73;4.35;;;;;;;;;;5015441;28;20050;-84
2023/07/03 19:41:13;;;;;;;5.95;3.72;;;;;;;;;;5014621;28;20494;-83
2023/07/03 19:44:02;;;;;;;6.72;3.45;;;;;;;;;;5013512;28;20054;-86
2023/07/03 19:46:48;;;;;;;4.95;3.92;;;;;;;;;;5020099;28;20487;-86
2023/07/03 19:49:33;;;;;;;5.10;3.40;;;;;;;;;;5012920;28;20061;-83
2023/07/03 19:52:20;;;;;;;8.77;4.97;;;;;;;;;;5019972;28;20475;-81
2023/07/03 19:55:06;;;;;;;8.32;4.05;;;;;;;;;;5013864;28;20062;-83
2023/07/03 19:57:52;;;;;;;13.70;3.90;;;;;;;;;;5014086;28;20038;-82
2023/07/03 20:00:37;;;;;;;7.38;4.10;;;;;;;;;;4999174;28;20407;-83
2023/07/03 20:03:23;;;;;;;9.52;3.40;;;;;;;;;;5015806;28;20049;-86
2023/07/03 20:06:23;;;;;;;5.40;3.50;;;;;;;;;;5015508;28;20406;-84
2023/07/03 20:09:08;;;;;;;11.13;3.97;;;;;;;;;;5015575;28;20485;-82
2023/07/03 20:11:53;;;;;;;6.55;3.83;;;;;;;;;;5014854;28;20050;-81
2023/07/03 20:14:39;;;;;;;8.63;4.25;;;;;;;;;;5015288;28;20050;-84